Tufão CHABA 2016: trajetória, intensidade e histórico
7/10/2016, 18:00:00
24/09/2016, 18:00:00 – 7/10/2016, 18:00:00
Trajetória histórica
Acompanhe a evolução e o deslocamento de Tufão CHABA em 2016, com a trajetória completa registrada, ventos máximos sustentados de 150 nós, pressão central mínima e cronologia detalhada.
| Data | Hora | Tipo | Ventokm/h | PressãohPa |
|---|---|---|---|---|
| 07/10 | 18:00 | EXCiclone extratropical | -- | 956 |
| 07/10 | 15:00 | EXCiclone extratropical | -- | 956 |
| 07/10 | 12:00 | EXCiclone extratropical | -- | 956 |
| 07/10 | 09:00 | EXCiclone extratropical | -- | 958 |
| 07/10 | 06:00 | EXCiclone extratropical | -- | 960 |
| 07/10 | 03:00 | EXCiclone extratropical | -- | 966 |
| 07/10 | 00:00 | EXCiclone extratropical | -- | 972 |
| 06/10 | 21:00 | EXCiclone extratropical | -- | 976 |
| 06/10 | 18:00 | EXCiclone extratropical | 55 | 980 |
| 06/10 | 15:00 | EXCiclone extratropical | 65 | 982 |
| 06/10 | 12:00 | EXCiclone extratropical | 70 | 984 |
| 06/10 | 09:00 | EXCiclone extratropical | 70 | 986 |
| 06/10 | 06:00 | EXCiclone extratropical | 70 | 988 |
| 06/10 | 03:00 | EXCiclone extratropical | 70 | 990 |
| 06/10 | 00:00 | EXCiclone extratropical | 70 | 992 |
| 05/10 | 21:00 | EXCiclone extratropical | 70 | 995 |
| 05/10 | 18:00 | EXCiclone extratropical | 70 | 998 |
| 05/10 | 15:00 | EXCiclone extratropical | 70 | 994 |
| 05/10 | 12:00 | EXCiclone extratropical | 85 | 996 |
| 05/10 | 09:00 | TSTempestade tropical | 95 | 985 |
| 05/10 | 06:00 | STSTempestade tropical severa | 100 | 982 |
| 05/10 | 03:00 | STSTempestade tropical severa | 115 | 976 |
| 05/10 | 00:00 | TTufão | 130 | 970 |
| 04/10 | 21:00 | TTufão | 145 | 968 |
| 04/10 | 18:00 | TTufão | 155 | 966 |
| 04/10 | 15:00 | TTufão | 165 | 959 |
| 04/10 | 12:00 | TTufão | 175 | 952 |
| 04/10 | 09:00 | STSupertufão | 195 | 945 |
| 04/10 | 06:00 | STSupertufão | 215 | 937 |
| 04/10 | 03:00 | STSupertufão | 220 | 936 |
| 04/10 | 00:00 | STSupertufão | 230 | 934 |
| 03/10 | 21:00 | STSupertufão | 240 | 930 |
| 03/10 | 18:00 | STSupertufão | 250 | 925 |
| 03/10 | 15:00 | STSupertufão | 255 | 922 |
| 03/10 | 12:00 | STSupertufão | 260 | 918 |
| 03/10 | 09:00 | STSupertufão | 270 | 915 |
| 03/10 | 06:00 | STSupertufão | 280 | 911 |
| 03/10 | 03:00 | STSupertufão | 265 | 917 |
| 03/10 | 00:00 | STSupertufão | 250 | 922 |
| 02/10 | 21:00 | STSupertufão | 240 | 926 |
| 02/10 | 18:00 | STSupertufão | 230 | 929 |
| 02/10 | 15:00 | STSupertufão | 220 | 933 |
| 02/10 | 12:00 | STSupertufão | 215 | 937 |
| 02/10 | 09:00 | STSupertufão | 215 | 937 |
| 02/10 | 06:00 | STSupertufão | 215 | 937 |
| 02/10 | 03:00 | STSupertufão | 210 | 939 |
| 02/10 | 00:00 | STSupertufão | 205 | 941 |
| 01/10 | 21:00 | STSupertufão | 185 | 949 |
| 01/10 | 18:00 | TTufão | 165 | 956 |
| 01/10 | 15:00 | TTufão | 155 | 962 |
| 01/10 | 12:00 | TTufão | 140 | 967 |
| 01/10 | 09:00 | TSTempestade tropical | 125 | 973 |
| 01/10 | 06:00 | STSTempestade tropical severa | 110 | 978 |
| 01/10 | 03:00 | TSTempestade tropical | 105 | 980 |
| 01/10 | 00:00 | STSTempestade tropical severa | 100 | 982 |
| 30/09 | 21:00 | TSTempestade tropical | 100 | 984 |
| 30/09 | 18:00 | STSTempestade tropical severa | 95 | 985 |
| 30/09 | 15:00 | TSTempestade tropical | 95 | 985 |
| 30/09 | 12:00 | STSTempestade tropical severa | 95 | 985 |
| 30/09 | 09:00 | TSTempestade tropical | 90 | 987 |
| 30/09 | 06:00 | STSTempestade tropical severa | 85 | 989 |
| 30/09 | 03:00 | TSTempestade tropical | 85 | 989 |
| 30/09 | 00:00 | STSTempestade tropical severa | 85 | 989 |
| 29/09 | 21:00 | TSTempestade tropical | 85 | 989 |
| 29/09 | 18:00 | TSTempestade tropical | 85 | 989 |
| 29/09 | 15:00 | TSTempestade tropical | 80 | 995 |
| 29/09 | 12:00 | TSTempestade tropical | 75 | 1001 |
| 29/09 | 09:00 | TSTempestade tropical | 70 | 1001 |
| 29/09 | 06:00 | TSTempestade tropical | 65 | 1000 |
| 29/09 | 03:00 | TDDepressão tropical | 60 | 1002 |
| 29/09 | 00:00 | TDDepressão tropical | 55 | 1004 |
| 28/09 | 21:00 | TDDepressão tropical | 55 | 1005 |
| 28/09 | 18:00 | TDDepressão tropical | 55 | 1005 |
| 28/09 | 15:00 | TDDepressão tropical | 50 | 1005 |
| 28/09 | 12:00 | TDDepressão tropical | 45 | 1004 |
| 28/09 | 09:00 | TDDepressão tropical | 45 | 1004 |
| 28/09 | 06:00 | TDDepressão tropical | 45 | 1004 |
| 28/09 | 03:00 | TDDepressão tropical | 45 | 1004 |
| 28/09 | 00:00 | TDDepressão tropical | 45 | 1004 |
| 27/09 | 21:00 | TDDepressão tropical | 45 | 1004 |
| 27/09 | 18:00 | TDDepressão tropical | 45 | 1004 |
| 27/09 | 15:00 | TDDepressão tropical | 45 | 1004 |
| 27/09 | 12:00 | TDDepressão tropical | 45 | 1004 |
| 27/09 | 09:00 | TDDepressão tropical | 45 | 1004 |
| 27/09 | 08:00 | TDDepressão tropical | 45 | 1004 |
| 27/09 | 06:00 | TDDepressão tropical | 45 | 1004 |
| 27/09 | 03:00 | TDDepressão tropical | 45 | 1004 |
| 27/09 | 00:00 | TDDepressão tropical | 45 | 1004 |
| 26/09 | 21:00 | DBPerturbação tropical | 45 | 1006 |
| 26/09 | 18:00 | TDDepressão tropical | 35 | 1007 |
| 26/09 | 15:00 | DBPerturbação tropical | 35 | 1007 |
| 26/09 | 12:00 | TDDepressão tropical | 35 | 1007 |
| 26/09 | 09:00 | DBPerturbação tropical | 35 | 1007 |
| 26/09 | 06:00 | TDDepressão tropical | 35 | 1007 |
| 26/09 | 03:00 | DBPerturbação tropical | 35 | 1007 |
| 26/09 | 00:00 | TDDepressão tropical | 35 | 1007 |
| 25/09 | 21:00 | DBPerturbação tropical | 35 | 1007 |
| 25/09 | 18:00 | TDDepressão tropical | 35 | 1007 |
| 25/09 | 15:00 | TDDepressão tropical | 45 | 1002 |
| 25/09 | 12:00 | TDDepressão tropical | 45 | 1008 |
| 25/09 | 09:00 | TDDepressão tropical | -- | 1008 |
| 25/09 | 06:00 | TDDepressão tropical | -- | 1008 |
| 25/09 | 03:00 | TDDepressão tropical | -- | 1008 |
| 25/09 | 00:00 | TDDepressão tropical | -- | 1008 |
| 24/09 | 21:00 | TDDepressão tropical | -- | 1008 |
| 24/09 | 18:00 | TDDepressão tropical | -- | 1008 |
Cronologia de localização
106 Registos de localizaçãoDetalhes do evento
Ligações das fontes
A localização, a extensão e o estado de cada evento podem ser atualizados em momentos diferentes consoante a fonte. Confirme decisões importantes junto das autoridades oficiais de emergência.
Os registos de eventos provêm da NASA EONET e são complementados por registos de deslizamentos de terra do USGS FDSN. As análises e previsões de tempestades podem utilizar a NOAA NHC ou o JTWC, com registos históricos ATCF da UCAR/NCAR quando disponíveis. As imagens de satélite provêm da NASA Worldview/GIBS (GOES e Himawari) ou da EUMETSAT Meteosat, consoante a cobertura do mapa.
Fontes: NASA EONET · USGS · NOAA NHC · JTWC · UCAR/NCAR ATCF · NASA Worldview/GIBS · EUMETSAT Meteosat · OpenStreetMap contributors